Time;durP1;ratioP1;P1;durP2;ratioP2;P2;SDS_P1;SDS_P2;PMS_P1;PMS_P2;Temp;Humidity;BMP_temperature;BMP_pressure;BME280_temperature;BME280_humidity;BME280_pressure;Samples;Min_cycle;Max_cycle;Signal;HPM_P1;HPM_P2
2023/11/18 00:03:05;;;;;;;;;;;;;;;4.41;100.00;96389.91;10594073;27;2608;-69
2023/11/18 00:08:08;;;;;;;;;;;;;;;4.34;100.00;96396.13;10592726;27;2691;-69
2023/11/18 00:13:10;;;;;;;;;;;;;;;4.36;100.00;96384.44;10594267;27;5102;-69
2023/11/18 00:18:13;;;;;;;;;;;;;;;4.36;100.00;96397.75;10598039;27;2555;-72
2023/11/18 00:23:17;;;;;;;;;;;;;;;4.33;100.00;96399.81;10601107;27;2641;-69
2023/11/18 00:28:23;;;;;;;;;;;;;;;4.27;100.00;96400.69;10603662;27;2519;-72
2023/11/18 00:33:25;;;;;;;;;;;;;;;4.29;100.00;96393.28;10601067;27;2659;-76
2023/11/18 00:38:28;;;;;;;;;;;;;;;4.31;100.00;96395.72;10601068;27;2617;-76
2023/11/18 00:43:31;;;;;;;;;;;;;;;4.27;100.00;96403.34;10601678;27;2645;-68
2023/11/18 00:48:33;;;;;;;;;;;;;;;4.23;100.00;96398.66;10601672;27;2537;-69
2023/11/18 00:53:36;;;;;;;;;;;;;;;4.25;100.00;96396.59;10599119;27;2577;-69
2023/11/18 00:58:40;;;;;;;;;;;;;;;4.30;100.00;96394.09;10598808;27;2614;-68
2023/11/18 01:03:43;;;;;;;;;;;;;;;4.36;100.00;96405.72;10600058;27;2691;-69
2023/11/18 01:08:45;;;;;;;;;;;;;;;4.41;100.00;96409.34;10593435;27;2690;-75
2023/11/18 01:13:48;;;;;;;;;;;;;;;4.37;100.00;96407.34;10596546;27;5130;-68
2023/11/18 01:18:50;;;;;;;;;;;;;;;4.37;100.00;96410.00;10588537;27;2615;-70
2023/11/18 01:23:53;;;;;;;;;;;;;;;4.16;100.00;96409.38;10603334;27;2552;-69
2023/11/18 01:28:55;;;;;;;;;;;;;;;4.17;100.00;96426.16;10599042;27;2651;-67
2023/11/18 01:33:58;;;;;;;;;;;;;;;4.26;100.00;96424.84;10597289;27;2650;-70
2023/11/18 01:39:00;;;;;;;;;;;;;;;4.28;100.00;96418.28;10595672;27;2653;-68
2023/11/18 01:44:04;;;;;;;;;;;;;;;4.18;100.00;96427.78;10597115;27;2587;-68
2023/11/18 01:49:07;;;;;;;;;;;;;;;4.21;100.00;96432.69;10596203;27;2666;-68
2023/11/18 01:54:11;;;;;;;;;;;;;;;4.21;100.00;96436.16;10599062;27;2583;-67
2023/11/18 01:59:18;;;;;;;;;;;;;;;4.21;100.00;96449.47;10599231;27;2591;-70
2023/11/18 02:04:20;;;;;;;;;;;;;;;4.21;100.00;96438.81;10592399;27;2632;-70
2023/11/18 02:09:27;;;;;;;;;;;;;;;4.24;100.00;96438.38;10591442;27;2604;-68
2023/11/18 02:14:30;;;;;;;;;;;;;;;4.20;100.00;96437.19;10593052;27;2596;-68
2023/11/18 02:19:33;;;;;;;;;;;;;;;4.25;100.00;96445.31;10577719;27;2581;-70
2023/11/18 02:24:37;;;;;;;;;;;;;;;4.14;100.00;96448.69;10596200;27;2639;-68
2023/11/18 02:29:40;;;;;;;;;;;;;;;4.28;100.00;96450.22;10601167;27;2637;-68
2023/11/18 02:34:43;;;;;;;;;;;;;;;4.30;100.00;96452.66;10597190;27;2700;-67
2023/11/18 02:39:49;;;;;;;;;;;;;;;4.33;100.00;96453.03;10592113;27;2590;-69
2023/11/18 02:44:58;;;;;;;;;;;;;;;4.28;100.00;96452.06;10596760;27;2651;-69
2023/11/18 02:50:09;;;;;;;;;;;;;;;4.26;100.00;96449.63;10591161;27;2634;-69
2023/11/18 02:55:13;;;;;;;;;;;;;;;4.27;100.00;96448.59;10597717;27;2680;-69
2023/11/18 03:00:19;;;;;;;;;;;;;;;4.32;100.00;96442.59;10595269;27;2617;-68
2023/11/18 03:05:21;;;;;;;;;;;;;;;4.36;100.00;96450.97;10591809;27;2660;-68
2023/11/18 03:10:24;;;;;;;;;;;;;;;4.28;100.00;96455.53;10597682;27;2654;-68
2023/11/18 03:15:27;;;;;;;;;;;;;;;4.33;100.00;96455.72;10590501;27;5116;-69
2023/11/18 03:20:30;;;;;;;;;;;;;;;4.21;100.00;96460.09;10592498;27;2555;-67
2023/11/18 03:25:32;;;;;;;;;;;;;;;4.27;100.00;96475.19;10592641;27;2610;-68
2023/11/18 03:30:36;;;;;;;;;;;;;;;4.12;100.00;96471.22;10588342;27;2587;-69
2023/11/18 03:35:39;;;;;;;;;;;;;;;4.25;100.00;96477.25;10590821;27;2551;-70
2023/11/18 03:40:42;;;;;;;;;;;;;;;4.22;100.00;96479.53;10594197;27;2658;-69
2023/11/18 03:45:44;;;;;;;;;;;;;;;4.24;100.00;96483.59;10590679;27;2565;-68
2023/11/18 03:50:47;;;;;;;;;;;;;;;4.24;100.00;96491.59;10589807;27;2557;-69
2023/11/18 03:55:51;;;;;;;;;;;;;;;4.32;100.00;96491.31;10592927;27;2675;-69
2023/11/18 04:00:54;;;;;;;;;;;;;;;4.28;100.00;96497.31;10592286;27;2583;-69
2023/11/18 04:05:57;;;;;;;;;;;;;;;4.25;100.00;96503.03;10592927;27;2575;-69
2023/11/18 04:10:59;;;;;;;;;;;;;;;4.27;100.00;96499.16;10592230;27;2580;-77
2023/11/18 04:16:02;;;;;;;;;;;;;;;4.28;100.00;96498.13;10592169;27;5253;-68
2023/11/18 04:21:04;;;;;;;;;;;;;;;4.31;100.00;96495.00;10585548;27;2606;-69
2023/11/18 04:26:07;;;;;;;;;;;;;;;4.28;100.00;96497.31;10588926;27;2662;-69
2023/11/18 04:31:11;;;;;;;;;;;;;;;4.22;100.00;96495.50;10589429;27;2685;-69
2023/11/18 04:36:16;;;;;;;;;;;;;;;4.20;100.00;96495.72;10591769;27;2599;-69
2023/11/18 04:41:18;;;;;;;;;;;;;;;4.17;100.00;96492.66;10587610;27;2642;-71
2023/11/18 04:46:21;;;;;;;;;;;;;;;4.19;100.00;96486.09;10600412;27;2803;-77
2023/11/18 04:51:24;;;;;;;;;;;;;;;4.10;100.00;96489.25;10598957;27;2624;-69
2023/11/18 04:56:26;;;;;;;;;;;;;;;4.10;100.00;96492.72;10597245;27;2695;-68
2023/11/18 05:01:29;;;;;;;;;;;;;;;4.14;100.00;96496.59;10599003;27;2589;-70
2023/11/18 05:06:31;;;;;;;;;;;;;;;4.13;100.00;96497.59;10598905;27;2620;-69
2023/11/18 05:11:34;;;;;;;;;;;;;;;4.15;100.00;96497.41;10605097;27;2781;-69
2023/11/18 05:16:36;;;;;;;;;;;;;;;4.17;100.00;96505.97;10598730;27;5118;-67
2023/11/18 05:21:39;;;;;;;;;;;;;;;4.18;100.00;96503.09;10599345;27;2624;-71
2023/11/18 05:26:41;;;;;;;;;;;;;;;4.22;100.00;96482.19;10603633;27;2666;-69
2023/11/18 05:31:45;;;;;;;;;;;;;;;4.21;100.00;96484.06;10598986;27;2540;-69
2023/11/18 05:36:48;;;;;;;;;;;;;;;4.14;100.00;96480.63;10595767;27;2596;-68
2023/11/18 05:41:51;;;;;;;;;;;;;;;4.22;100.00;96487.53;10596887;27;2617;-69
2023/11/18 05:46:53;;;;;;;;;;;;;;;4.24;100.00;96486.25;10603836;27;2608;-68
2023/11/18 05:51:56;;;;;;;;;;;;;;;4.30;100.00;96489.91;10598183;27;2684;-68
2023/11/18 05:56:59;;;;;;;;;;;;;;;4.29;100.00;96489.09;10593878;27;2718;-68
2023/11/18 06:02:03;;;;;;;;;;;;;;;4.34;100.00;96497.25;10598197;27;2672;-70
2023/11/18 06:07:06;;;;;;;;;;;;;;;4.24;100.00;96515.53;10594419;27;2654;-69
2023/11/18 06:12:10;;;;;;;;;;;;;;;4.28;100.00;96527.41;10576090;27;5165;-68
2023/11/18 06:17:13;;;;;;;;;;;;;;;4.32;100.00;96528.56;10593547;27;2593;-68
2023/11/18 06:22:15;;;;;;;;;;;;;;;4.32;100.00;96527.75;10593815;27;2674;-69
2023/11/18 06:27:22;;;;;;;;;;;;;;;4.38;100.00;96529.56;10596142;27;2625;-69
2023/11/18 06:32:25;;;;;;;;;;;;;;;4.35;100.00;96527.34;10593069;27;2578;-69
2023/11/18 06:37:28;;;;;;;;;;;;;;;4.44;100.00;96535.88;10590959;27;2573;-69
2023/11/18 06:42:30;;;;;;;;;;;;;;;4.53;100.00;96529.28;10591822;27;2648;-69
2023/11/18 06:47:34;;;;;;;;;;;;;;;4.52;100.00;96522.31;10592967;27;2649;-72
2023/11/18 06:52:37;;;;;;;;;;;;;;;4.61;100.00;96523.66;10594851;27;2613;-74
2023/11/18 06:57:39;;;;;;;;;;;;;;;4.63;100.00;96532.25;10594144;27;2567;-72
2023/11/18 07:02:42;;;;;;;;;;;;;;;4.65;100.00;96540.84;10592887;27;2642;-75
2023/11/18 07:07:46;;;;;;;;;;;;;;;4.70;100.00;96533.00;10593101;27;2714;-72
2023/11/18 07:12:49;;;;;;;;;;;;;;;4.86;100.00;96519.16;10592370;27;5186;-68
2023/11/18 07:17:51;;;;;;;;;;;;;;;4.86;100.00;96526.31;10598401;27;2650;-69
2023/11/18 07:22:58;;;;;;;;;;;;;;;4.95;100.00;96529.50;10599414;27;2685;-68
2023/11/18 07:28:00;;;;;;;;;;;;;;;5.12;100.00;96531.41;10593460;27;2592;-69
2023/11/18 07:33:03;;;;;;;;;;;;;;;5.20;100.00;96535.63;10598726;27;2572;-67
2023/11/18 07:38:07;;;;;;;;;;;;;;;5.28;100.00;96535.34;10597419;27;2564;-68
2023/11/18 07:43:09;;;;;;;;;;;;;;;5.44;100.00;96539.25;10594031;27;2658;-69
2023/11/18 07:48:12;;;;;;;;;;;;;;;5.57;100.00;96548.97;10597442;27;2627;-70
2023/11/18 07:53:15;;;;;;;;;;;;;;;5.52;100.00;96546.97;10596680;27;2575;-68
2023/11/18 07:58:20;;;;;;;;;;;;;;;5.56;100.00;96545.50;10596204;27;2700;-74
2023/11/18 08:03:22;;;;;;;;;;;;;;;5.82;100.00;96532.88;10593086;27;2624;-69
2023/11/18 08:08:25;;;;;;;;;;;;;;;5.91;100.00;96539.53;10592533;27;2658;-68
2023/11/18 08:13:27;;;;;;;;;;;;;;;6.04;100.00;96549.22;10590044;27;5136;-68
2023/11/18 08:18:31;;;;;;;;;;;;;;;6.00;100.00;96537.38;10600312;27;2607;-68
2023/11/18 08:23:33;;;;;;;;;;;;;;;6.12;100.00;96527.56;10602364;27;2718;-71
2023/11/18 08:28:36;;;;;;;;;;;;;;;6.21;100.00;96535.03;10598802;27;2613;-67
2023/11/18 08:33:38;;;;;;;;;;;;;;;6.28;100.00;96539.47;10595479;27;2634;-72
2023/11/18 08:38:44;;;;;;;;;;;;;;;6.32;100.00;96552.13;10598452;27;2636;-70
2023/11/18 08:43:48;;;;;;;;;;;;;;;6.46;100.00;96558.09;10597127;27;2715;-69
2023/11/18 08:48:51;;;;;;;;;;;;;;;6.48;100.00;96535.44;10593811;27;2560;-70
2023/11/18 08:53:54;;;;;;;;;;;;;;;6.67;100.00;96522.00;10601630;27;2591;-69
2023/11/18 08:58:59;;;;;;;;;;;;;;;6.80;100.00;96520.97;10597932;27;2637;-70
2023/11/18 09:04:01;;;;;;;;;;;;;;;6.99;100.00;96531.31;10594958;27;2587;-70
2023/11/18 09:09:09;;;;;;;;;;;;;;;6.84;100.00;96524.81;10594125;27;2653;-72
2023/11/18 09:14:12;;;;;;;;;;;;;;;6.72;100.00;96522.94;10595885;27;4722;-75
2023/11/18 09:19:16;;;;;;;;;;;;;;;6.78;100.00;96518.53;10603242;27;2553;-70
2023/11/18 09:24:19;;;;;;;;;;;;;;;6.84;100.00;96524.81;10601045;27;2639;-70
2023/11/18 09:29:24;;;;;;;;;;;;;;;7.57;100.00;96519.78;10599446;27;2563;-69
2023/11/18 09:34:33;;;;;;;;;;;;;;;7.77;100.00;96515.91;10598268;27;2617;-67
2023/11/18 09:39:38;;;;;;;;;;;;;;;7.97;100.00;96520.84;10597809;27;2567;-69
2023/11/18 09:44:41;;;;;;;;;;;;;;;8.12;100.00;96524.59;10597147;27;2668;-69
2023/11/18 09:49:44;;;;;;;;;;;;;;;8.04;100.00;96522.31;10593394;27;2683;-68
2023/11/18 09:54:46;;;;;;;;;;;;;;;8.16;100.00;96514.22;10600605;27;2632;-69
2023/11/18 09:59:53;;;;;;;;;;;;;;;8.12;100.00;96524.59;10605780;27;2636;-68
2023/11/18 10:04:58;;;;;;;;;;;;;;;8.10;100.00;96520.53;10596809;27;2640;-70
2023/11/18 10:10:01;;;;;;;;;;;;;;;7.95;100.00;96517.56;10596471;27;2596;-71
2023/11/18 10:15:11;;;;;;;;;;;;;;;7.48;100.00;96502.47;10596276;27;4634;-72
2023/11/18 10:20:16;;;;;;;;;;;;;;;7.20;100.00;96500.53;10577387;27;2629;-67
2023/11/18 10:25:18;;;;;;;;;;;;;;;7.26;100.00;96482.75;10597214;27;2662;-69
2023/11/18 10:30:21;;;;;;;;;;;;;;;7.31;100.00;96480.97;10592236;27;2698;-70
2023/11/18 10:35:24;;;;;;;;;;;;;;;7.31;100.00;96480.16;10592074;27;2683;-69
2023/11/18 10:40:27;;;;;;;;;;;;;;;7.30;100.00;96462.47;10591019;27;2616;-70
2023/11/18 10:45:30;;;;;;;;;;;;;;;7.50;100.00;96457.53;10597502;27;2649;-69
2023/11/18 10:50:32;;;;;;;;;;;;;;;7.37;100.00;96473.06;10593222;27;2540;-69
2023/11/18 10:55:35;;;;;;;;;;;;;;;7.56;100.00;96486.03;10591590;27;2621;-71
2023/11/18 11:00:37;;;;;;;;;;;;;;;7.97;100.00;96478.00;10592551;27;2648;-73
2023/11/18 11:05:42;;;;;;;;;;;;;;;8.34;100.00;96479.19;10587618;27;2616;-69
2023/11/18 11:10:45;;;;;;;;;;;;;;;8.89;100.00;96477.69;10591633;27;2691;-71
2023/11/18 11:15:49;;;;;;;;;;;;;;;8.97;100.00;96474.59;10588238;27;2593;-69
2023/11/18 11:21:03;;;;;;;;;;;;;;;9.27;100.00;96471.50;10592727;27;2687;-69
2023/11/18 11:26:08;;;;;;;;;;;;;;;9.29;100.00;96473.94;10597042;27;2578;-68
2023/11/18 11:31:12;;;;;;;;;;;;;;;8.87;100.00;96490.53;10594646;27;2624;-69
2023/11/18 11:36:16;;;;;;;;;;;;;;;9.01;100.00;96493.69;10590167;27;2598;-67
2023/11/18 11:41:26;;;;;;;;;;;;;;;8.87;100.00;96491.34;10591319;27;2714;-67
2023/11/18 11:46:34;;;;;;;;;;;;;;;9.07;100.00;96482.78;10602013;27;2594;-69
2023/11/18 11:51:40;;;;;;;;;;;;;;;9.01;100.00;96454.25;10603561;27;2670;-68
2023/11/18 11:56:43;;;;;;;;;;;;;;;9.28;100.00;96458.91;10605578;27;2643;-70
2023/11/18 12:01:46;;;;;;;;;;;;;;;9.33;100.00;96458.97;10601028;27;2746;-70
2023/11/18 12:06:53;;;;;;;;;;;;;;;8.88;100.00;96447.38;10610544;27;1967;-69
2023/11/18 12:12:02;;;;;;;;;;;;;;;8.70;100.00;96439.59;10594568;27;4656;-71
2023/11/18 12:17:09;;;;;;;;;;;;;;;8.70;100.00;96438.78;10610329;27;1764;-68
2023/11/18 12:22:17;;;;;;;;;;;;;;;8.13;100.00;96455.78;10610871;27;2002;-69
2023/11/18 12:27:22;;;;;;;;;;;;;;;7.70;100.00;96440.25;10614254;27;1894;-70
2023/11/18 12:32:25;;;;;;;;;;;;;;;7.78;100.00;96429.19;10616736;27;1543;-68
2023/11/18 12:37:28;;;;;;;;;;;;;;;7.75;100.00;96422.44;10613782;27;1528;-69
2023/11/18 12:42:31;;;;;;;;;;;;;;;7.80;100.00;96411.84;10613029;27;1914;-67
2023/11/18 12:47:34;;;;;;;;;;;;;;;8.04;100.00;96409.03;10604190;27;1756;-70
2023/11/18 12:52:38;;;;;;;;;;;;;;;7.98;100.00;96394.75;10614978;27;1571;-68
2023/11/18 12:57:42;;;;;;;;;;;;;;;8.07;100.00;96390.59;10604486;27;2533;-68
2023/11/18 13:02:45;;;;;;;;;;;;;;;8.02;100.00;96389.75;10609969;27;1910;-68
2023/11/18 13:07:48;;;;;;;;;;;;;;;7.98;100.00;96388.59;10612660;27;1561;-72
2023/11/18 13:12:51;;;;;;;;;;;;;;;8.12;100.00;96385.34;10612820;27;4728;-73
2023/11/18 13:17:55;;;;;;;;;;;;;;;7.93;100.00;96370.56;10593340;27;1540;-74
2023/11/18 13:22:58;;;;;;;;;;;;;;;7.62;100.00;96377.25;10612966;27;1914;-76
2023/11/18 13:28:01;;;;;;;;;;;;;;;7.52;100.00;96364.50;10610092;27;2011;-72
2023/11/18 13:33:04;;;;;;;;;;;;;;;7.55;100.00;96352.50;10611424;27;1787;-67
2023/11/18 13:38:08;;;;;;;;;;;;;;;7.50;100.00;96358.56;10614329;27;1541;-68
2023/11/18 13:43:11;;;;;;;;;;;;;;;7.52;100.00;96356.47;10614435;27;1938;-71
2023/11/18 13:48:13;;;;;;;;;;;;;;;7.50;100.00;96353.22;10607043;27;1475;-69
2023/11/18 13:53:16;;;;;;;;;;;;;;;7.47;100.00;96353.72;10604807;27;1547;-68
2023/11/18 13:58:20;;;;;;;;;;;;;;;7.48;100.00;96351.84;10618382;27;1714;-69
2023/11/18 14:03:23;;;;;;;;;;;;;;;7.51;100.00;96352.19;10614543;27;1913;-72
2023/11/18 14:08:26;;;;;;;;;;;;;;;7.64;100.00;96348.41;10606775;27;2362;-69
2023/11/18 14:13:30;;;;;;;;;;;;;;;7.63;100.00;96337.91;10595100;27;4737;-70
2023/11/18 14:18:36;;;;;;;;;;;;;;;7.56;100.00;96344.22;10612813;27;1530;-69
2023/11/18 14:23:41;;;;;;;;;;;;;;;7.50;100.00;96350.53;10614202;27;1898;-69
2023/11/18 14:28:44;;;;;;;;;;;;;;;7.53;100.00;96334.03;10595585;27;1562;-70
2023/11/18 14:33:48;;;;;;;;;;;;;;;7.47;100.00;96328.81;10612872;27;1482;-69
2023/11/18 14:38:50;;;;;;;;;;;;;;;7.26;100.00;96311.59;10606700;27;1451;-69
2023/11/18 14:43:54;;;;;;;;;;;;;;;6.93;100.00;96315.75;10608454;27;1975;-68
2023/11/18 14:48:57;;;;;;;;;;;;;;;6.67;100.00;96333.13;10606457;27;1741;-68
2023/11/18 14:54:02;;;;;;;;;;;;;;;6.45;100.00;96343.63;10612389;27;1520;-68
2023/11/18 14:59:07;;;;;;;;;;;;;;;6.35;100.00;96324.69;10609290;27;1478;-69
2023/11/18 15:04:11;;;;;;;;;;;;;;;6.36;100.00;96312.16;10602969;27;2248;-69
2023/11/18 15:09:14;;;;;;;;;;;;;;;6.42;100.00;96301.34;10606697;27;1521;-67
2023/11/18 15:14:18;;;;;;;;;;;;;;;6.44;100.00;96307.28;10602961;27;4705;-68
2023/11/18 15:19:21;;;;;;;;;;;;;;;6.53;100.00;96297.03;10612169;27;1489;-69
2023/11/18 15:24:24;;;;;;;;;;;;;;;6.52;100.00;96278.59;10600828;27;1914;-71
2023/11/18 15:29:33;;;;;;;;;;;;;;;6.54;100.00;96276.50;10606420;27;1454;-68
2023/11/18 15:34:35;;;;;;;;;;;;;;;6.46;100.00;96259.78;10602314;27;1578;-71
2023/11/18 15:39:41;;;;;;;;;;;;;;;6.37;100.00;96253.19;10589570;27;1557;-68
2023/11/18 15:44:43;;;;;;;;;;;;;;;6.43;100.00;96241.56;10606704;27;1905;-69
2023/11/18 15:49:47;;;;;;;;;;;;;;;6.49;100.00;96215.78;10587834;27;1472;-74
2023/11/18 15:54:49;;;;;;;;;;;;;;;6.53;100.00;96242.81;10611896;27;1506;-69
2023/11/18 15:59:52;;;;;;;;;;;;;;;6.56;100.00;96251.19;10610082;27;1513;-69
2023/11/18 16:04:55;;;;;;;;;;;;;;;6.50;100.00;96252.94;10605230;27;1963;-69
2023/11/18 16:09:59;;;;;;;;;;;;;;;6.54;100.00;96260.47;10611542;27;1634;-72
2023/11/18 16:15:11;;;;;;;;;;;;;;;6.54;100.00;96260.47;10606987;27;4709;-71
2023/11/18 16:20:16;;;;;;;;;;;;;;;6.49;100.00;96264.66;10603115;27;1707;-71
2023/11/18 16:25:22;;;;;;;;;;;;;;;6.42;100.00;96245.25;10602386;27;2851;-69
2023/11/18 16:30:29;;;;;;;;;;;;;;;6.38;100.00;96225.44;10603346;27;1591;-72
2023/11/18 16:35:34;;;;;;;;;;;;;;;6.36;100.00;96216.88;10611626;27;1657;-68
2023/11/18 16:40:38;;;;;;;;;;;;;;;6.34;100.00;96218.94;10621399;27;1485;-68
2023/11/18 16:45:41;;;;;;;;;;;;;;;6.38;100.00;96221.97;10610863;27;1913;-68
2023/11/18 16:50:45;;;;;;;;;;;;;;;6.38;100.00;96229.97;10607776;27;1483;-67
2023/11/18 16:55:48;;;;;;;;;;;;;;;6.47;100.00;96234.69;10617073;27;1609;-69
2023/11/18 17:00:51;;;;;;;;;;;;;;;6.53;100.00;96226.78;10611756;27;1469;-75
2023/11/18 17:05:53;;;;;;;;;;;;;;;6.53;100.00;96250.81;10611005;27;1976;-71
2023/11/18 17:10:56;;;;;;;;;;;;;;;6.48;100.00;96256.88;10605835;27;1465;-69
2023/11/18 17:15:59;;;;;;;;;;;;;;;6.45;100.00;96260.84;10608394;27;4713;-69
2023/11/18 17:21:02;;;;;;;;;;;;;;;6.53;100.00;96269.53;10609632;27;1585;-69
2023/11/18 17:26:05;;;;;;;;;;;;;;;6.53;100.00;96264.19;10607725;27;2605;-69
2023/11/18 17:31:08;;;;;;;;;;;;;;;6.45;100.00;96258.16;10593167;27;2703;-69
2023/11/18 17:36:11;;;;;;;;;;;;;;;6.47;100.00;96250.72;10594761;27;2583;-69
2023/11/18 17:41:14;;;;;;;;;;;;;;;6.50;100.00;96257.47;10601329;27;2608;-70
2023/11/18 17:46:17;;;;;;;;;;;;;;;6.45;100.00;96242.13;10604344;27;2624;-70
2023/11/18 17:51:22;;;;;;;;;;;;;;;6.49;100.00;96243.31;10606904;27;2030;-68
2023/11/18 17:56:25;;;;;;;;;;;;;;;6.48;100.00;96236.31;10604905;27;1493;-69
2023/11/18 18:01:28;;;;;;;;;;;;;;;6.54;100.00;96237.22;10607432;27;1836;-68
2023/11/18 18:06:34;;;;;;;;;;;;;;;6.60;100.00;96238.16;10609559;27;1980;-69
2023/11/18 18:11:37;;;;;;;;;;;;;;;6.57;100.00;96234.09;10607655;27;1721;-72
2023/11/18 18:16:40;;;;;;;;;;;;;;;6.60;100.00;96243.50;10583623;27;5054;-72
2023/11/18 18:21:42;;;;;;;;;;;;;;;6.36;100.00;96246.25;10593286;27;2556;-68
2023/11/18 18:26:45;;;;;;;;;;;;;;;6.10;100.00;96238.69;10591962;27;2670;-70
2023/11/18 18:31:47;;;;;;;;;;;;;;;5.84;100.00;96235.44;10594676;27;2654;-69
2023/11/18 18:36:50;;;;;;;;;;;;;;;5.67;100.00;96221.19;10594135;27;2537;-70
2023/11/18 18:41:53;;;;;;;;;;;;;;;5.52;100.00;96226.97;10594935;27;2727;-69
2023/11/18 18:46:56;;;;;;;;;;;;;;;5.47;100.00;96223.34;10597633;27;2591;-68
2023/11/18 18:51:59;;;;;;;;;;;;;;;5.48;100.00;96215.16;10598777;27;2529;-69
2023/11/18 18:57:02;;;;;;;;;;;;;;;5.52;100.00;96212.81;10595629;27;2572;-68
2023/11/18 19:02:04;;;;;;;;;;;;;;;5.54;100.00;96205.41;10596224;27;2625;-69
2023/11/18 19:07:09;;;;;;;;;;;;;;;5.40;100.00;96213.59;10573215;27;2597;-69
2023/11/18 19:12:13;;;;;;;;;;;;;;;5.36;100.00;96217.78;10597644;27;4752;-73
2023/11/18 19:17:17;;;;;;;;;;;;;;;5.28;100.00;96217.28;10589214;27;2579;-73
2023/11/18 19:22:24;;;;;;;;;;;;;;;5.20;100.00;96201.66;10595385;27;2508;-76
2023/11/18 19:27:29;;;;;;;;;;;;;;;5.15;100.00;96191.66;10603856;27;2571;-73
2023/11/18 19:32:34;;;;;;;;;;;;;;;5.05;100.00;96191.44;10589576;27;2795;-77
2023/11/18 19:37:37;;;;;;;;;;;;;;;4.95;100.00;96157.34;10597834;27;2602;-75
2023/11/18 19:42:40;;;;;;;;;;;;;;;4.86;100.00;96145.41;10582752;27;2584;-73
2023/11/18 19:47:43;;;;;;;;;;;;;;;4.77;100.00;96123.63;10592960;27;2608;-72
2023/11/18 19:52:46;;;;;;;;;;;;;;;4.70;100.00;96120.22;10595949;27;2629;-70
2023/11/18 19:57:48;;;;;;;;;;;;;;;4.68;100.00;96124.16;10592219;27;2600;-71
2023/11/18 20:02:51;;;;;;;;;;;;;;;4.53;100.00;96117.41;10598173;27;2596;-74
2023/11/18 20:07:54;;;;;;;;;;;;;;;4.51;100.00;96123.97;10599622;27;2649;-74
2023/11/18 20:12:57;;;;;;;;;;;;;;;4.46;100.00;96150.50;10599439;27;4763;-69
2023/11/18 20:18:03;;;;;;;;;;;;;;;4.54;100.00;96145.66;10603040;27;2556;-69
2023/11/18 20:23:06;;;;;;;;;;;;;;;4.49;100.00;96136.72;10603968;27;2634;-69
2023/11/18 20:28:09;;;;;;;;;;;;;;;4.18;100.00;96108.47;10610705;27;2567;-68
2023/11/18 20:33:12;;;;;;;;;;;;;;;4.09;100.00;96084.03;10586366;27;2546;-70
2023/11/18 20:38:15;;;;;;;;;;;;;;;4.11;100.00;96062.53;10602297;27;2659;-69
2023/11/18 20:43:17;;;;;;;;;;;;;;;4.09;100.00;96057.44;10589617;27;2612;-70
2023/11/18 20:48:21;;;;;;;;;;;;;;;4.10;100.00;96040.44;10585355;27;2605;-70
2023/11/18 20:53:24;;;;;;;;;;;;;;;4.06;100.00;96036.59;10598686;27;2621;-71
2023/11/18 20:58:27;;;;;;;;;;;;;;;4.10;100.00;96029.78;10602296;27;2703;-70
2023/11/18 21:03:30;;;;;;;;;;;;;;;4.12;100.00;96014.41;10597299;27;2650;-69
2023/11/18 21:08:34;;;;;;;;;;;;;;;4.13;100.00;96009.88;10606425;27;2686;-72
2023/11/18 21:13:38;;;;;;;;;;;;;;;4.12;100.00;96005.59;10596621;27;2590;-71
2023/11/18 21:18:41;;;;;;;;;;;;;;;4.09;100.00;95976.81;10594527;27;2639;-67
2023/11/18 21:23:44;;;;;;;;;;;;;;;4.14;100.00;95961.78;10596395;27;2642;-68
2023/11/18 21:28:47;;;;;;;;;;;;;;;4.05;100.00;95939.19;10600282;27;2582;-69
2023/11/18 21:33:50;;;;;;;;;;;;;;;4.00;100.00;95923.91;10594901;27;2688;-69
2023/11/18 21:38:53;;;;;;;;;;;;;;;3.97;100.00;95916.41;10597241;27;2653;-71
2023/11/18 21:43:58;;;;;;;;;;;;;;;3.88;100.00;95899.19;10577157;27;2596;-69
2023/11/18 21:49:00;;;;;;;;;;;;;;;3.92;100.00;95883.56;10574760;27;2733;-70
2023/11/18 21:54:03;;;;;;;;;;;;;;;3.96;100.00;95895.38;10593777;27;2806;-71
2023/11/18 21:59:07;;;;;;;;;;;;;;;3.99;100.00;95886.91;10595082;27;2608;-69
2023/11/18 22:04:11;;;;;;;;;;;;;;;4.02;100.00;95873.19;10592661;27;2710;-70
2023/11/18 22:09:16;;;;;;;;;;;;;;;3.95;100.00;95869.81;10591319;27;2618;-68
2023/11/18 22:14:18;;;;;;;;;;;;;;;4.09;100.00;95881.03;10607628;27;2544;-74
2023/11/18 22:19:24;;;;;;;;;;;;;;;4.10;100.00;95887.97;10588251;27;2787;-69
2023/11/18 22:24:30;;;;;;;;;;;;;;;4.20;100.00;95896.19;10599510;27;2596;-74
2023/11/18 22:29:32;;;;;;;;;;;;;;;4.11;100.00;95892.25;10594835;27;2795;-73
2023/11/18 22:34:35;;;;;;;;;;;;;;;4.18;100.00;95884.97;10591795;27;2710;-70
2023/11/18 22:39:39;;;;;;;;;;;;;;;4.24;100.00;95895.50;10605093;27;2596;-71
2023/11/18 22:44:45;;;;;;;;;;;;;;;4.20;100.00;95886.38;10575274;27;2700;-74
2023/11/18 22:49:48;;;;;;;;;;;;;;;4.21;100.00;95879.22;10591672;27;2610;-70
2023/11/18 22:54:51;;;;;;;;;;;;;;;4.11;100.00;95860.34;10594416;27;2616;-69
2023/11/18 22:59:54;;;;;;;;;;;;;;;4.32;100.00;95854.44;10593754;27;2768;-70
2023/11/18 23:04:57;;;;;;;;;;;;;;;4.27;100.00;95841.84;10590878;27;2715;-75
2023/11/18 23:10:00;;;;;;;;;;;;;;;4.34;100.00;95842.53;10587887;27;2607;-69
2023/11/18 23:15:03;;;;;;;;;;;;;;;4.26;100.00;95840.22;10593370;27;4817;-70
2023/11/18 23:20:10;;;;;;;;;;;;;;;4.37;100.00;95835.91;10593789;27;2572;-69
2023/11/18 23:25:13;;;;;;;;;;;;;;;4.51;100.00;95841.81;10592562;27;2622;-69
2023/11/18 23:30:16;;;;;;;;;;;;;;;4.57;100.00;95819.56;10594724;27;2642;-69
2023/11/18 23:35:19;;;;;;;;;;;;;;;4.55;100.00;95822.47;10571546;27;2750;-70
2023/11/18 23:40:24;;;;;;;;;;;;;;;4.66;100.00;95818.19;10593489;27;2631;-70
2023/11/18 23:45:29;;;;;;;;;;;;;;;4.57;100.00;95806.25;10587764;27;2697;-69
2023/11/18 23:50:35;;;;;;;;;;;;;;;4.59;100.00;95790.88;10598324;27;2594;-69
2023/11/18 23:55:43;;;;;;;;;;;;;;;4.66;100.00;95796.06;10593655;27;2669;-68
